Morton, Indiana
Current Conditions -  °F | °C
As of 5:15 PM on Friday 31 Oct 2014 (Local Time) from K4I7 Reporting Station
Light Snow Light Snow  
Wind Chill: 28°   Ceiling: 2500
Heat Index: 36°   Visibility: 7mi
Dew Point: 30°   Wind: 12mph
Humidity: 81%   Direction: 310°NW
Pressure: 30.06"   Gusts: 20mph
Location:  39.6767°N, 86.9214°W
Report Text: K4I7 312115Z AUTO 31010G17KT 7SM -SN BKN025 OVC033 02/M01 A3006 RMK AO2
Loading
Personal Weather Stations






























Interactive Weather Map
Tropical Storm Tracking
New forecast layout! Learn more

10-Day Weather Forecast

Advertisements
Track Severe Weather on mobile